createdAt,value
2024-02-15T00:00:35.438Z,1.60
2024-02-15T00:03:03.402Z,2.20
2024-02-15T00:05:31.599Z,1.70
2024-02-15T00:07:59.367Z,2.03
2024-02-15T00:10:27.163Z,2.20
2024-02-15T00:12:55.091Z,2.57
2024-02-15T00:15:24.333Z,2.40
2024-02-15T00:17:52.976Z,2.50
2024-02-15T00:20:21.393Z,2.60
2024-02-15T00:22:50.997Z,2.23
2024-02-15T00:25:18.782Z,2.33
2024-02-15T00:27:46.566Z,2.47
2024-02-15T00:30:15.461Z,2.17
2024-02-15T00:32:46.348Z,2.13
2024-02-15T00:35:14.773Z,2.20
2024-02-15T00:37:43.273Z,2.10
2024-02-15T00:40:11.448Z,2.13
2024-02-15T00:42:40.366Z,1.90
2024-02-15T00:45:10.143Z,2.17
2024-02-15T00:47:39.094Z,2.17
2024-02-15T00:50:10.111Z,1.90
2024-02-15T00:52:38.000Z,1.70
2024-02-15T00:55:06.494Z,2.30
2024-02-15T00:57:34.313Z,2.10
2024-02-15T01:00:03.773Z,2.77
2024-02-15T01:02:32.074Z,2.43
2024-02-15T01:05:00.205Z,2.13
2024-02-15T01:07:29.523Z,2.40
2024-02-15T01:09:57.425Z,1.83
2024-02-15T01:12:25.476Z,2.20
2024-02-15T01:14:53.527Z,2.30
2024-02-15T01:17:21.554Z,2.43
2024-02-15T01:19:49.555Z,2.10
2024-02-15T01:22:19.036Z,2.10
2024-02-15T01:24:48.982Z,2.37
2024-02-15T01:27:16.730Z,2.10
2024-02-15T01:29:45.009Z,2.60
2024-02-15T01:32:12.793Z,2.20
2024-02-15T01:34:40.570Z,2.30
2024-02-15T01:37:08.531Z,2.50
2024-02-15T01:39:36.440Z,2.37
2024-02-15T01:42:06.390Z,2.20
2024-02-15T01:44:34.270Z,1.70
2024-02-15T01:47:02.796Z,2.40
2024-02-15T01:49:30.810Z,2.37
2024-02-15T01:51:59.903Z,2.50
2024-02-15T01:54:28.848Z,1.93
2024-02-15T01:56:57.175Z,1.93
2024-02-15T01:59:27.871Z,2.90
2024-02-15T02:01:55.661Z,2.30
2024-02-15T02:04:23.801Z,2.07
2024-02-15T02:06:51.736Z,2.10
2024-02-15T02:09:19.579Z,2.07
2024-02-15T02:11:49.691Z,1.90
2024-02-15T02:14:21.683Z,1.90
2024-02-15T02:16:50.976Z,1.90
2024-02-15T02:19:19.385Z,2.23
2024-02-15T02:21:51.688Z,2.00
2024-02-15T02:24:24.925Z,2.03
2024-02-15T02:26:56.392Z,2.13
2024-02-15T02:29:24.366Z,1.67
2024-02-15T02:31:52.167Z,1.93
2024-02-15T02:34:21.049Z,2.10
2024-02-15T02:36:49.340Z,2.10
2024-02-15T02:39:17.864Z,2.10
2024-02-15T02:41:45.761Z,2.20
2024-02-15T02:44:15.180Z,2.33
2024-02-15T02:46:44.093Z,2.17
2024-02-15T02:49:12.139Z,2.17
2024-02-15T02:51:40.018Z,2.20
2024-02-15T02:54:08.270Z,2.28
2024-02-15T02:56:36.398Z,2.40
2024-02-15T02:59:04.582Z,2.00
2024-02-15T03:01:33.864Z,2.17
2024-02-15T03:04:02.393Z,3.00
2024-02-15T03:06:30.330Z,2.30
2024-02-15T03:08:59.040Z,2.28
2024-02-15T03:11:27.033Z,2.30
2024-02-15T03:13:54.813Z,2.33
2024-02-15T03:16:26.061Z,2.05
2024-02-15T03:18:55.850Z,2.50
2024-02-15T03:21:23.927Z,1.98
2024-02-15T03:23:51.836Z,2.47
2024-02-15T03:26:31.549Z,1.98
2024-02-15T03:28:59.710Z,2.40
2024-02-15T03:31:27.699Z,2.10
2024-02-15T03:33:57.066Z,2.35
2024-02-15T03:36:25.388Z,2.28
2024-02-15T03:38:57.104Z,2.00
2024-02-15T03:41:25.394Z,2.13
2024-02-15T03:43:54.019Z,2.28
2024-02-15T03:46:21.842Z,2.50
2024-02-15T03:48:49.665Z,2.03
2024-02-15T03:51:21.513Z,3.00
2024-02-15T03:53:50.063Z,2.58
2024-02-15T03:56:18.179Z,2.40
2024-02-15T03:58:46.690Z,2.33
2024-02-15T04:01:16.555Z,2.20
2024-02-15T04:03:45.700Z,2.13
2024-02-15T04:06:13.946Z,2.25
2024-02-15T04:08:43.128Z,2.57
2024-02-15T04:11:11.240Z,2.47
2024-02-15T04:13:39.156Z,2.50
2024-02-15T04:16:07.474Z,2.30
2024-02-15T04:18:35.378Z,2.20
2024-02-15T04:21:03.502Z,2.22
2024-02-15T04:23:31.551Z,2.30
2024-02-15T04:26:01.278Z,2.27
2024-02-15T04:28:29.050Z,1.90
2024-02-15T04:30:56.926Z,2.17
2024-02-15T04:33:24.964Z,2.10
2024-02-15T04:35:52.922Z,2.70
2024-02-15T04:38:21.116Z,2.20
2024-02-15T04:40:49.094Z,2.53
2024-02-15T04:43:18.385Z,2.50
2024-02-15T04:45:46.931Z,2.43
2024-02-15T04:48:15.409Z,2.50
2024-02-15T04:50:44.145Z,2.10
2024-02-15T04:53:13.502Z,2.10
2024-02-15T04:55:41.417Z,2.90
2024-02-15T04:58:11.931Z,2.60
2024-02-15T05:00:41.208Z,2.40
2024-02-15T05:03:09.690Z,2.25
2024-02-15T05:05:39.562Z,2.15
2024-02-15T05:08:11.852Z,2.63
2024-02-15T05:10:39.979Z,3.00
2024-02-15T05:13:08.132Z,2.37
2024-02-15T05:15:35.919Z,2.03
2024-02-15T05:18:09.444Z,2.33
2024-02-15T05:20:37.531Z,2.27
2024-02-15T05:23:06.121Z,2.37
2024-02-15T05:25:35.485Z,2.23
2024-02-15T05:28:07.172Z,2.70
2024-02-15T05:30:34.999Z,2.45
2024-02-15T05:33:02.995Z,2.30
2024-02-15T05:35:32.367Z,2.43
2024-02-15T05:38:00.399Z,2.27
2024-02-15T05:40:28.267Z,1.90
2024-02-15T05:42:59.788Z,1.83
2024-02-15T05:45:37.369Z,2.30
2024-02-15T05:48:09.039Z,2.27
2024-02-15T05:50:38.867Z,2.30
2024-02-15T05:53:09.393Z,2.20
2024-02-15T05:55:39.068Z,2.13
2024-02-15T05:58:07.102Z,2.40
2024-02-15T06:00:35.771Z,2.60
2024-02-15T06:03:04.620Z,2.33
2024-02-15T06:05:33.765Z,2.50
2024-02-15T06:08:03.333Z,2.50
2024-02-15T06:10:32.673Z,2.67
2024-02-15T06:13:00.776Z,2.45
2024-02-15T06:15:28.888Z,2.67
2024-02-15T06:17:56.886Z,2.58
2024-02-15T06:20:25.567Z,2.58
2024-02-15T06:22:54.354Z,2.38
2024-02-15T06:25:24.372Z,2.60
2024-02-15T06:28:01.073Z,3.10
2024-02-15T06:30:46.694Z,2.40
2024-02-15T06:33:32.144Z,2.73
2024-02-15T06:36:18.664Z,3.23
2024-02-15T06:39:04.446Z,2.30
2024-02-15T06:41:33.887Z,2.70
2024-02-15T06:44:02.278Z,3.03
2024-02-15T06:46:30.185Z,3.00
2024-02-15T06:48:59.439Z,2.43
2024-02-15T06:51:27.913Z,2.40
2024-02-15T06:53:57.463Z,2.45
2024-02-15T06:56:30.006Z,2.92
2024-02-15T06:58:59.934Z,2.50
2024-02-15T07:01:28.344Z,2.65
2024-02-15T07:03:59.606Z,3.20
2024-02-15T07:06:28.595Z,2.83
2024-02-15T07:08:58.538Z,2.90
2024-02-15T07:11:26.552Z,3.50
2024-02-15T07:13:55.978Z,3.47
2024-02-15T07:16:25.635Z,2.83
2024-02-15T07:18:53.884Z,3.20
2024-02-15T07:21:27.278Z,2.90
2024-02-15T07:23:56.808Z,2.63
2024-02-15T07:26:26.743Z,3.20
2024-02-15T07:28:55.598Z,2.57
2024-02-15T07:31:25.996Z,2.40
2024-02-15T07:33:54.884Z,3.20
2024-02-15T07:36:23.724Z,3.30
2024-02-15T07:38:55.363Z,2.67
2024-02-15T07:41:23.959Z,2.73
2024-02-15T07:43:52.720Z,2.83
2024-02-15T07:46:20.948Z,2.60
2024-02-15T07:48:50.598Z,2.03
2024-02-15T07:51:19.699Z,2.50
2024-02-15T07:53:48.175Z,2.10
2024-02-15T07:56:16.974Z,2.57
2024-02-15T07:58:51.826Z,2.10
2024-02-15T08:01:22.926Z,2.23
2024-02-15T08:03:52.340Z,3.30
2024-02-15T08:06:20.683Z,2.87
2024-02-15T08:08:49.823Z,1.97
2024-02-15T08:11:18.114Z,1.60
2024-02-15T08:13:47.127Z,2.43
2024-02-15T08:16:17.216Z,1.93
2024-02-15T08:18:47.466Z,1.97
2024-02-15T08:21:17.154Z,2.30
2024-02-15T08:23:45.068Z,2.20
2024-02-15T08:26:13.225Z,2.00
2024-02-15T08:28:41.186Z,2.00
2024-02-15T08:31:10.998Z,1.90
2024-02-15T08:33:39.994Z,1.93
2024-02-15T08:36:11.456Z,2.17
2024-02-15T08:38:42.321Z,1.90
2024-02-15T08:41:12.501Z,2.87
2024-02-15T08:43:41.372Z,2.00
2024-02-15T08:46:09.329Z,1.80
2024-02-15T08:48:37.599Z,1.70
2024-02-15T08:51:07.260Z,2.13
2024-02-15T08:53:35.278Z,2.20
2024-02-15T08:56:04.720Z,2.57
2024-02-15T08:58:32.595Z,2.17
2024-02-15T09:01:00.869Z,2.43
2024-02-15T09:03:29.011Z,2.20
2024-02-15T09:05:57.251Z,2.30
2024-02-15T09:08:25.079Z,2.60
2024-02-15T09:10:53.781Z,2.03
2024-02-15T09:13:23.810Z,2.10
2024-02-15T09:15:51.762Z,2.30
2024-02-15T09:18:20.197Z,1.97
2024-02-15T09:20:50.270Z,2.17
2024-02-15T09:23:18.189Z,2.20
2024-02-15T09:25:46.001Z,2.20
2024-02-15T09:28:15.160Z,2.17
2024-02-15T09:30:44.397Z,2.37
2024-02-15T09:33:12.313Z,2.40
2024-02-15T09:35:40.459Z,2.23
2024-02-15T09:38:09.928Z,2.10
2024-02-15T09:40:37.831Z,2.30
2024-02-15T09:43:05.848Z,2.17
2024-02-15T09:45:36.272Z,2.30
2024-02-15T09:48:09.572Z,2.17
2024-02-15T09:50:41.249Z,1.80
2024-02-15T09:53:09.782Z,2.10
2024-02-15T09:55:38.184Z,1.50
2024-02-15T09:58:07.048Z,2.70
2024-02-15T10:00:36.146Z,1.80
2024-02-15T10:03:08.902Z,2.00
2024-02-15T10:05:37.250Z,1.73
2024-02-15T10:08:06.268Z,2.00
2024-02-15T10:10:37.041Z,2.03
2024-02-15T10:13:05.234Z,1.50
2024-02-15T10:15:35.148Z,2.03
2024-02-15T10:18:04.466Z,1.30
2024-02-15T10:20:35.585Z,1.60
2024-02-15T10:23:14.510Z,1.83
2024-02-15T10:25:42.971Z,1.87
2024-02-15T10:28:11.985Z,1.57
2024-02-15T10:30:41.146Z,1.70
2024-02-15T10:33:10.064Z,1.60
2024-02-15T10:35:40.579Z,1.60
2024-02-15T10:38:10.874Z,2.20
2024-02-15T10:40:40.074Z,1.90
2024-02-15T10:43:08.313Z,1.83
2024-02-15T10:45:38.668Z,1.60
2024-02-15T10:48:08.785Z,1.90
2024-02-15T10:50:36.697Z,1.87
2024-02-15T10:53:15.080Z,1.90
2024-02-15T10:55:51.004Z,1.70
2024-02-15T10:58:22.109Z,1.90
2024-02-15T11:00:52.397Z,2.17
2024-02-15T11:03:27.771Z,2.43
2024-02-15T11:06:02.194Z,1.83
2024-02-15T11:08:33.335Z,3.50
2024-02-15T11:11:05.976Z,4.00
2024-02-15T11:13:34.423Z,3.40
2024-02-15T11:16:02.964Z,3.30
2024-02-15T11:18:50.442Z,3.03
2024-02-15T11:21:19.500Z,1.53
2024-02-15T11:23:48.903Z,2.10
2024-02-15T11:26:48.438Z,1.20
2024-02-15T11:29:52.849Z,2.27
2024-02-15T11:32:42.090Z,2.10
2024-02-15T11:35:15.056Z,1.30
2024-02-15T11:38:05.497Z,1.57
2024-02-15T11:41:08.290Z,1.80
2024-02-15T11:43:57.166Z,1.60
2024-02-15T11:46:32.521Z,1.90
2024-02-15T11:49:01.917Z,1.80
2024-02-15T11:51:31.924Z,1.80
2024-02-15T11:54:09.076Z,2.40
2024-02-15T11:57:06.143Z,2.00
2024-02-15T11:59:55.094Z,2.17
2024-02-15T12:03:00.170Z,1.63
2024-02-15T12:47:44.921Z,1.70
2024-02-15T12:50:32.758Z,1.90
2024-02-15T12:53:03.871Z,1.43
2024-02-15T12:55:37.161Z,1.70
2024-02-15T12:58:10.842Z,1.50
2024-02-15T13:00:41.908Z,1.73
2024-02-15T13:03:17.253Z,2.07
2024-02-15T13:05:49.416Z,1.67
2024-02-15T13:08:20.448Z,1.67
2024-02-15T13:10:48.764Z,1.70
2024-02-15T13:13:18.376Z,1.83
2024-02-15T21:28:28.235Z,4.60
2024-02-15T21:30:57.104Z,4.60
2024-02-15T21:33:40.481Z,3.87
2024-02-15T21:36:10.673Z,3.60
2024-02-15T21:38:39.823Z,4.80
2024-02-15T21:41:08.393Z,4.10
2024-02-15T21:43:38.908Z,4.33
2024-02-15T21:46:07.128Z,4.37
2024-02-15T21:48:35.555Z,4.40
2024-02-15T21:51:04.891Z,3.90
2024-02-15T21:53:33.592Z,4.40
2024-02-15T21:56:02.048Z,4.23
2024-02-15T21:58:30.535Z,4.73
2024-02-15T22:01:00.698Z,4.03
2024-02-15T22:03:29.069Z,5.00
2024-02-15T22:05:57.177Z,4.13
2024-02-15T22:08:25.338Z,5.00
2024-02-15T22:10:54.108Z,4.50
2024-02-15T22:13:22.623Z,4.10
2024-02-15T22:15:50.476Z,4.53
2024-02-15T22:18:20.096Z,4.40
2024-02-15T22:20:49.992Z,4.43
2024-02-15T22:23:21.212Z,4.57
2024-02-15T22:25:52.440Z,5.33
2024-02-15T22:28:21.327Z,3.90
2024-02-15T22:30:49.378Z,3.43
2024-02-15T22:33:17.340Z,4.43
2024-02-15T22:35:46.884Z,4.50
2024-02-15T22:38:14.804Z,4.03
2024-02-15T22:40:43.722Z,4.00
2024-02-15T22:43:11.997Z,4.67
2024-02-15T22:45:39.742Z,4.40
2024-02-15T22:48:08.343Z,4.00
2024-02-15T22:50:36.459Z,3.93
2024-02-15T22:53:05.934Z,3.10
2024-02-15T22:55:33.682Z,4.17
2024-02-15T22:58:01.653Z,3.97
2024-02-15T23:00:29.983Z,4.70
2024-02-15T23:02:58.214Z,4.37
2024-02-15T23:05:26.104Z,3.83
2024-02-15T23:07:53.878Z,3.80
2024-02-15T23:10:23.206Z,3.50
2024-02-15T23:12:51.327Z,3.70
2024-02-15T23:15:20.148Z,3.60
2024-02-15T23:17:48.442Z,3.90
2024-02-15T23:20:16.987Z,3.70
2024-02-15T23:22:46.125Z,3.60
2024-02-15T23:25:14.452Z,3.10
2024-02-15T23:27:45.094Z,3.60
2024-02-15T23:30:14.092Z,3.60
2024-02-15T23:32:42.216Z,3.30
2024-02-15T23:35:15.026Z,3.70
2024-02-15T23:38:00.444Z,3.70
2024-02-15T23:40:28.236Z,3.13
2024-02-15T23:42:58.006Z,3.30
2024-02-15T23:47:53.651Z,4.23
2024-02-15T23:50:21.580Z,3.80
2024-02-15T23:52:50.383Z,4.30
2024-02-15T23:55:18.322Z,4.50
2024-02-15T23:57:48.010Z,4.57
